createdAt,value
2019-03-24T00:00:03.778Z,99.90
2019-03-24T00:02:34.455Z,99.90
2019-03-24T00:05:05.063Z,99.90
2019-03-24T00:07:35.927Z,99.90
2019-03-24T00:10:07.329Z,99.90
2019-03-24T00:12:37.781Z,99.90
2019-03-24T00:15:08.976Z,99.90
2019-03-24T00:17:39.350Z,99.90
2019-03-24T00:20:10.421Z,99.90
2019-03-24T00:22:40.955Z,99.90
2019-03-24T00:25:11.865Z,99.90
2019-03-24T00:27:42.234Z,99.90
2019-03-24T00:30:14.107Z,99.90
2019-03-24T00:32:45.796Z,99.90
2019-03-24T00:35:16.233Z,99.90
2019-03-24T00:37:46.619Z,99.90
2019-03-24T00:40:17.272Z,99.90
2019-03-24T00:42:48.028Z,99.90
2019-03-24T00:45:18.758Z,99.90
2019-03-24T00:47:49.628Z,99.90
2019-03-24T00:50:20.134Z,99.90
2019-03-24T00:52:50.517Z,99.90
2019-03-24T00:55:20.892Z,99.90
2019-03-24T00:57:51.599Z,99.90
2019-03-24T01:00:28.453Z,99.90
2019-03-24T01:02:59.161Z,99.90
2019-03-24T01:05:29.516Z,99.90
2019-03-24T01:08:00.218Z,99.90
2019-03-24T01:10:30.836Z,99.90
2019-03-24T01:13:02.100Z,99.90
2019-03-24T01:15:32.478Z,99.90
2019-03-24T01:18:02.949Z,99.90
2019-03-24T01:20:33.266Z,99.90
2019-03-24T01:23:03.789Z,99.90
2019-03-24T01:25:34.543Z,99.90
2019-03-24T01:28:08.674Z,99.90
2019-03-24T01:30:39.130Z,99.90
2019-03-24T01:33:09.946Z,99.90
2019-03-24T01:35:40.320Z,99.90
2019-03-24T01:38:11.332Z,99.90
2019-03-24T01:40:42.338Z,99.90
2019-03-24T01:43:12.636Z,99.90
2019-03-24T01:45:44.838Z,99.90
2019-03-24T01:48:16.783Z,99.90
2019-03-24T01:50:49.777Z,99.90
2019-03-24T01:53:20.371Z,99.90
2019-03-24T01:55:53.163Z,99.90
2019-03-24T01:58:24.946Z,99.90
2019-03-24T02:00:55.978Z,99.90
2019-03-24T02:03:30.281Z,99.90
2019-03-24T02:06:04.600Z,99.90
2019-03-24T02:08:37.354Z,99.90
2019-03-24T02:11:10.393Z,99.90
2019-03-24T02:13:41.712Z,99.90
2019-03-24T02:16:15.231Z,99.90
2019-03-24T02:18:48.714Z,99.90
2019-03-24T02:21:19.443Z,99.90
2019-03-24T02:24:02.010Z,99.90
2019-03-24T02:26:34.135Z,99.90
2019-03-24T02:29:05.206Z,99.90
2019-03-24T02:31:38.161Z,99.90
2019-03-24T02:34:12.206Z,99.90
2019-03-24T02:36:46.278Z,99.90
2019-03-24T02:39:17.065Z,99.90
2019-03-24T02:41:48.659Z,99.90
2019-03-24T02:44:19.172Z,99.90
2019-03-24T02:46:49.970Z,99.90
2019-03-24T02:49:20.327Z,99.90
2019-03-24T02:51:50.682Z,99.90
2019-03-24T02:54:21.053Z,99.90
2019-03-24T02:56:51.356Z,99.90
2019-03-24T02:59:22.056Z,99.90
2019-03-24T03:01:52.411Z,99.90
2019-03-24T03:04:22.832Z,99.90
2019-03-24T03:06:53.328Z,99.90
2019-03-24T03:09:23.657Z,99.90
2019-03-24T03:11:54.347Z,99.90
2019-03-24T03:14:25.306Z,99.90
2019-03-24T03:16:55.720Z,99.90
2019-03-24T03:19:26.437Z,99.90
2019-03-24T03:21:57.137Z,99.90
2019-03-24T03:24:27.832Z,99.90
2019-03-24T03:26:58.671Z,99.90
2019-03-24T03:29:29.655Z,99.90
2019-03-24T03:32:00.333Z,99.90
2019-03-24T03:34:31.136Z,99.90
2019-03-24T03:37:01.555Z,99.90
2019-03-24T03:39:31.841Z,99.90
2019-03-24T03:42:02.456Z,99.90
2019-03-24T03:44:33.101Z,99.90
2019-03-24T03:47:03.483Z,99.90
2019-03-24T03:49:34.122Z,99.90
2019-03-24T03:52:05.124Z,99.90
2019-03-24T03:54:35.830Z,99.90
2019-03-24T03:57:06.147Z,99.90
2019-03-24T03:59:37.236Z,99.90
2019-03-24T04:02:07.562Z,99.90
2019-03-24T04:04:37.894Z,99.90
2019-03-24T04:07:08.358Z,99.90
2019-03-24T04:09:38.670Z,99.90
2019-03-24T04:12:09.013Z,99.90
2019-03-24T04:14:39.310Z,99.90
2019-03-24T04:17:10.308Z,99.90
2019-03-24T04:19:41.195Z,99.90
2019-03-24T04:22:11.881Z,99.90
2019-03-24T04:24:43.493Z,99.90
2019-03-24T04:27:14.750Z,99.90
2019-03-24T04:29:46.025Z,99.90
2019-03-24T04:32:16.374Z,99.90
2019-03-24T04:34:46.730Z,99.90
2019-03-24T04:37:17.429Z,99.90
2019-03-24T04:39:47.894Z,99.90
2019-03-24T04:42:18.238Z,99.90
2019-03-24T04:44:49.134Z,99.90
2019-03-24T04:47:19.474Z,99.90
2019-03-24T04:49:49.875Z,99.90
2019-03-24T04:52:20.613Z,99.90
2019-03-24T04:54:51.394Z,99.90
2019-03-24T04:57:22.230Z,99.90
2019-03-24T04:59:53.087Z,99.90
2019-03-24T05:02:24.261Z,99.90
2019-03-24T05:04:54.619Z,99.90
2019-03-24T05:07:25.369Z,99.90
2019-03-24T05:09:56.038Z,99.90
2019-03-24T05:12:26.481Z,99.90
2019-03-24T05:14:57.602Z,99.90
2019-03-24T05:17:27.980Z,99.90
2019-03-24T05:19:58.458Z,99.90
2019-03-24T05:22:29.186Z,99.90
2019-03-24T05:24:59.912Z,99.90
2019-03-24T05:27:30.341Z,99.90
2019-03-24T05:30:01.291Z,99.90
2019-03-24T05:32:31.717Z,99.90
2019-03-24T05:35:02.402Z,99.90
2019-03-24T05:37:32.774Z,99.90
2019-03-24T05:40:03.714Z,99.90
2019-03-24T05:42:34.479Z,99.90
2019-03-24T05:45:04.955Z,99.90
2019-03-24T05:47:37.290Z,99.90
2019-03-24T05:50:07.585Z,99.90
2019-03-24T05:52:37.974Z,99.90
2019-03-24T05:55:08.606Z,99.90
2019-03-24T05:57:39.232Z,99.90
2019-03-24T06:00:10.256Z,99.90
2019-03-24T06:02:40.683Z,99.90
2019-03-24T06:05:11.103Z,99.90
2019-03-24T06:07:41.562Z,99.90
2019-03-24T06:10:12.546Z,99.90
2019-03-24T06:12:42.934Z,99.90
2019-03-24T06:15:13.460Z,99.90
2019-03-24T06:17:47.973Z,99.90
2019-03-24T06:20:17.003Z,99.90
2019-03-24T06:22:47.426Z,99.90
2019-03-24T06:25:18.340Z,99.90
2019-03-24T06:27:48.717Z,99.90
2019-03-24T06:30:19.176Z,99.90
2019-03-24T06:32:49.603Z,99.90
2019-03-24T06:35:20.010Z,99.90
2019-03-24T06:37:50.351Z,99.90
2019-03-24T06:40:20.846Z,99.90
2019-03-24T06:42:51.515Z,99.90
2019-03-24T06:45:28.381Z,99.90
2019-03-24T06:47:58.263Z,99.90
2019-03-24T06:50:26.508Z,99.90
2019-03-24T06:52:57.494Z,99.90
2019-03-24T06:55:27.821Z,99.90
2019-03-24T06:57:58.804Z,99.90
2019-03-24T07:00:29.931Z,99.90
2019-03-24T07:03:00.323Z,99.90
2019-03-24T07:05:31.743Z,99.90
2019-03-24T07:08:04.811Z,99.90
2019-03-24T07:10:35.586Z,99.90
2019-03-24T07:13:06.371Z,99.90
2019-03-24T07:15:36.920Z,99.90
2019-03-24T07:18:10.318Z,99.90
2019-03-24T07:20:40.731Z,99.90
2019-03-24T07:23:11.882Z,99.90
2019-03-24T07:25:42.373Z,99.90
2019-03-24T07:28:15.044Z,99.90
2019-03-24T07:30:45.526Z,99.90
2019-03-24T07:33:16.031Z,99.90
2019-03-24T07:35:46.911Z,99.90
2019-03-24T07:38:17.636Z,99.90
2019-03-24T07:40:47.995Z,99.90
2019-03-24T07:43:19.161Z,99.90
2019-03-24T07:45:50.028Z,99.90
2019-03-24T07:48:20.832Z,99.90
2019-03-24T07:50:51.484Z,99.90
2019-03-24T07:53:21.975Z,99.90
2019-03-24T07:55:52.567Z,99.90
2019-03-24T07:58:23.439Z,99.90
2019-03-24T08:00:54.415Z,99.90
2019-03-24T08:03:26.758Z,99.90
2019-03-24T08:05:57.171Z,99.90
2019-03-24T08:08:27.978Z,99.90
2019-03-24T08:10:58.883Z,99.90
2019-03-24T08:13:29.721Z,99.90
2019-03-24T08:16:00.483Z,99.90
2019-03-24T08:18:31.243Z,99.90
2019-03-24T08:21:01.758Z,99.90
2019-03-24T08:23:32.291Z,99.90
2019-03-24T08:26:03.309Z,99.90
2019-03-24T08:28:34.651Z,99.90
2019-03-24T08:31:05.159Z,99.90
2019-03-24T08:33:35.564Z,99.90
2019-03-24T08:36:05.961Z,99.90
2019-03-24T08:38:36.408Z,99.90
2019-03-24T08:41:07.095Z,99.90
2019-03-24T08:43:38.510Z,99.90
2019-03-24T08:46:09.201Z,99.60
2019-03-24T08:48:41.194Z,98.70
2019-03-24T08:51:12.211Z,98.70
2019-03-24T08:53:43.097Z,97.60
2019-03-24T08:56:13.912Z,97.30
2019-03-24T08:58:44.756Z,97.70
2019-03-24T09:01:15.285Z,97.10
2019-03-24T09:03:49.311Z,97.30
2019-03-24T09:06:20.485Z,97.30
2019-03-24T09:08:50.882Z,97.80
2019-03-24T09:11:30.799Z,97.10
2019-03-24T09:13:54.199Z,96.60
2019-03-24T09:16:24.710Z,96.60
2019-03-24T09:18:55.750Z,96.30
2019-03-24T09:21:28.545Z,95.70
2019-03-24T09:23:59.816Z,95.40
2019-03-24T09:26:30.770Z,95.40
2019-03-24T09:29:04.269Z,95.40
2019-03-24T09:31:35.206Z,95.80
2019-03-24T09:34:06.263Z,95.80
2019-03-24T09:36:36.754Z,96.20
2019-03-24T09:39:09.037Z,96.70
2019-03-24T09:41:39.824Z,98.10
2019-03-24T09:44:10.398Z,96.70
2019-03-24T09:46:41.407Z,97.20
2019-03-24T09:49:12.638Z,97.40
2019-03-24T09:51:43.041Z,96.50
2019-03-24T09:54:13.894Z,97.30
2019-03-24T09:56:44.699Z,97.40
2019-03-24T09:59:16.283Z,96.80
2019-03-24T10:01:47.884Z,96.40
2019-03-24T10:04:19.280Z,97.20
2019-03-24T10:06:50.282Z,97.00
2019-03-24T10:09:25.012Z,96.50
2019-03-24T10:11:55.703Z,97.30
2019-03-24T10:14:27.444Z,96.60
2019-03-24T10:16:58.348Z,96.10
2019-03-24T10:19:29.270Z,95.60
2019-03-24T10:21:59.764Z,95.30
2019-03-24T10:24:30.083Z,95.40
2019-03-24T10:27:00.547Z,95.50
2019-03-24T10:29:31.467Z,94.70
2019-03-24T10:32:02.907Z,94.60
2019-03-24T10:34:34.167Z,93.80
2019-03-24T10:37:05.376Z,94.10
2019-03-24T10:39:35.956Z,94.10
2019-03-24T10:42:06.906Z,94.00
2019-03-24T10:44:37.625Z,93.40
2019-03-24T10:47:08.374Z,94.10
2019-03-24T10:49:38.822Z,90.80
2019-03-24T10:52:09.504Z,91.50
2019-03-24T10:54:39.873Z,91.00
2019-03-24T10:57:10.626Z,91.30
2019-03-24T10:59:41.063Z,90.90
2019-03-24T11:02:11.734Z,89.30
2019-03-24T11:04:42.349Z,90.00
2019-03-24T11:07:12.703Z,90.30
2019-03-24T11:09:45.123Z,90.30
2019-03-24T11:12:16.066Z,88.40
2019-03-24T11:14:46.397Z,88.70
2019-03-24T11:17:17.591Z,90.00
2019-03-24T11:19:47.973Z,89.70
2019-03-24T11:22:18.951Z,90.90
2019-03-24T11:24:49.582Z,88.40
2019-03-24T11:27:20.451Z,87.30
2019-03-24T11:29:51.172Z,89.30
2019-03-24T11:32:21.857Z,87.80
2019-03-24T11:34:52.248Z,87.80
2019-03-24T11:37:22.919Z,85.40
2019-03-24T11:39:53.835Z,85.00
2019-03-24T11:42:24.268Z,83.20
2019-03-24T11:44:55.508Z,85.20
2019-03-24T11:47:26.995Z,87.20
2019-03-24T11:49:59.151Z,86.80
2019-03-24T11:52:30.096Z,84.80
2019-03-24T11:55:01.297Z,83.00
2019-03-24T11:57:34.211Z,84.80
2019-03-24T12:00:05.080Z,84.10
2019-03-24T12:02:36.464Z,83.10
2019-03-24T12:05:08.223Z,82.90
2019-03-24T12:07:39.175Z,83.50
2019-03-24T12:10:12.640Z,86.00
2019-03-24T12:12:43.137Z,85.60
2019-03-24T12:15:14.783Z,85.80
2019-03-24T12:17:45.762Z,84.30
2019-03-24T12:20:17.458Z,83.60
2019-03-24T12:22:48.660Z,83.60
2019-03-24T12:25:19.244Z,83.50
2019-03-24T12:27:49.707Z,83.50
2019-03-24T12:30:20.329Z,81.80
2019-03-24T12:32:51.646Z,82.50
2019-03-24T12:35:26.995Z,81.40
2019-03-24T12:37:58.932Z,77.90
2019-03-24T12:40:29.852Z,81.40
2019-03-24T12:43:00.215Z,82.40
2019-03-24T12:45:33.592Z,81.00
2019-03-24T12:48:04.122Z,81.60
2019-03-24T12:50:34.850Z,80.60
2019-03-24T12:53:05.667Z,80.80
2019-03-24T12:55:35.940Z,79.20
2019-03-24T12:58:06.437Z,78.90
2019-03-24T13:00:41.464Z,77.20
2019-03-24T13:03:12.612Z,79.40
2019-03-24T13:05:43.110Z,76.50
2019-03-24T13:08:16.243Z,75.90
2019-03-24T13:10:47.910Z,76.40
2019-03-24T13:13:18.954Z,76.60
2019-03-24T13:15:49.320Z,76.80
2019-03-24T13:18:21.220Z,77.20
2019-03-24T13:20:52.163Z,76.00
2019-03-24T13:23:22.549Z,75.30
2019-03-24T13:25:53.631Z,75.20
2019-03-24T13:28:23.983Z,75.90
2019-03-24T13:30:54.754Z,76.50
2019-03-24T13:33:25.859Z,76.20
2019-03-24T13:36:13.122Z,77.20
2019-03-24T13:38:44.020Z,74.00
2019-03-24T13:41:15.081Z,73.20
2019-03-24T13:43:45.928Z,73.80
2019-03-24T13:46:18.532Z,76.90
2019-03-24T13:48:49.255Z,75.20
2019-03-24T13:51:20.416Z,73.90
2019-03-24T13:53:54.319Z,74.60
2019-03-24T13:56:25.071Z,73.50
2019-03-24T13:58:56.703Z,74.20
2019-03-24T14:01:27.683Z,74.20
2019-03-24T14:04:01.026Z,73.70
2019-03-24T14:06:31.411Z,73.30
2019-03-24T14:09:02.835Z,74.00
2019-03-24T14:11:33.531Z,74.00
2019-03-24T14:14:04.235Z,73.00
2019-03-24T14:16:34.532Z,72.80
2019-03-24T14:19:05.446Z,73.30
2019-03-24T14:21:35.895Z,71.80
2019-03-24T14:24:07.594Z,72.00
2019-03-24T14:26:38.036Z,71.10
2019-03-24T14:29:08.760Z,71.80
2019-03-24T14:31:39.643Z,71.50
2019-03-24T14:34:10.309Z,72.50
2019-03-24T14:36:41.103Z,73.00
2019-03-24T14:39:11.938Z,72.50
2019-03-24T14:41:42.294Z,72.70
2019-03-24T14:44:13.035Z,72.80
2019-03-24T14:46:45.941Z,73.40
2019-03-24T14:49:16.586Z,73.60
2019-03-24T14:51:46.984Z,74.20
2019-03-24T14:54:18.010Z,74.30
2019-03-24T14:56:48.414Z,73.70
2019-03-24T14:59:19.125Z,74.70
2019-03-24T15:01:54.559Z,75.00
2019-03-24T15:04:27.775Z,74.70
2019-03-24T15:06:58.535Z,75.70
2019-03-24T15:09:30.376Z,76.30
2019-03-24T15:12:01.408Z,75.50
2019-03-24T15:14:32.395Z,76.20
2019-03-24T15:17:03.157Z,75.90
2019-03-24T15:19:34.268Z,75.30
2019-03-24T15:22:05.123Z,76.30
2019-03-24T15:24:36.207Z,76.50
2019-03-24T15:27:08.080Z,76.50
2019-03-24T15:29:39.200Z,77.00
2019-03-24T15:32:10.448Z,77.00
2019-03-24T15:34:42.233Z,76.80
2019-03-24T15:37:13.205Z,76.40
2019-03-24T15:39:43.682Z,76.90
2019-03-24T15:42:14.528Z,77.20
2019-03-24T15:44:44.955Z,77.10
2019-03-24T15:47:15.712Z,76.70
2019-03-24T15:49:46.427Z,76.90
2019-03-24T15:52:18.275Z,77.00
2019-03-24T15:54:49.754Z,77.00
2019-03-24T15:57:21.131Z,76.00
2019-03-24T15:59:51.740Z,76.60
2019-03-24T16:02:22.913Z,76.50
2019-03-24T16:04:53.862Z,76.60
2019-03-24T16:07:24.455Z,76.90
2019-03-24T16:09:55.123Z,77.70
2019-03-24T16:12:26.023Z,77.10
2019-03-24T16:14:57.319Z,77.40
2019-03-24T16:17:28.876Z,77.90
2019-03-24T16:20:00.330Z,78.20
2019-03-24T16:22:30.911Z,77.60
2019-03-24T16:25:01.965Z,77.50
2019-03-24T16:27:34.984Z,78.40
2019-03-24T16:30:06.089Z,78.30
2019-03-24T16:32:36.735Z,78.00
2019-03-24T16:35:07.911Z,77.90
2019-03-24T16:37:39.199Z,78.70
2019-03-24T16:40:10.779Z,79.00
2019-03-24T16:42:41.580Z,80.30
2019-03-24T16:45:13.714Z,81.30
2019-03-24T16:47:46.724Z,82.00
2019-03-24T16:50:20.004Z,82.30
2019-03-24T16:52:51.119Z,83.20
2019-03-24T16:55:21.629Z,83.90
2019-03-24T16:57:53.131Z,84.30
2019-03-24T17:00:24.179Z,84.30
2019-03-24T17:02:54.754Z,84.30
2019-03-24T17:05:25.282Z,84.70
2019-03-24T17:07:55.699Z,85.40
2019-03-24T17:10:26.541Z,85.60
2019-03-24T17:12:57.559Z,85.30
2019-03-24T17:15:28.785Z,86.00
2019-03-24T17:17:59.214Z,85.70
2019-03-24T17:20:30.584Z,85.90
2019-03-24T17:23:01.618Z,86.20
2019-03-24T17:25:36.452Z,86.10
2019-03-24T17:28:10.500Z,86.40
2019-03-24T17:30:41.722Z,86.60
2019-03-24T17:33:13.334Z,86.70
2019-03-24T17:35:44.126Z,87.00
2019-03-24T17:38:16.360Z,86.90
2019-03-24T17:40:46.767Z,87.00
2019-03-24T17:43:18.178Z,87.00
2019-03-24T17:45:48.843Z,87.50
2019-03-24T17:48:19.506Z,87.90
2019-03-24T17:50:50.400Z,88.40
2019-03-24T17:53:21.023Z,89.10
2019-03-24T17:55:52.584Z,90.00
2019-03-24T17:58:23.626Z,90.20
2019-03-24T18:00:56.432Z,90.70
2019-03-24T18:03:33.781Z,91.20
2019-03-24T18:06:08.116Z,91.80
2019-03-24T18:08:42.828Z,92.30
2019-03-24T18:11:14.424Z,92.60
2019-03-24T18:13:50.240Z,93.30
2019-03-24T18:16:23.418Z,93.80
2019-03-24T18:18:54.049Z,94.30
2019-03-24T18:21:24.821Z,94.80
2019-03-24T18:23:55.843Z,95.40
2019-03-24T18:26:26.880Z,96.10
2019-03-24T18:28:57.912Z,96.40
2019-03-24T18:31:28.799Z,96.90
2019-03-24T18:33:59.951Z,97.50
2019-03-24T18:36:30.396Z,97.90
2019-03-24T18:39:02.108Z,98.50
2019-03-24T18:41:34.674Z,99.20
2019-03-24T18:44:06.587Z,99.90
2019-03-24T18:46:39.954Z,99.90
2019-03-24T18:49:11.274Z,99.90
2019-03-24T18:51:43.715Z,99.90
2019-03-24T18:54:16.409Z,99.90
2019-03-24T18:56:48.130Z,99.90
2019-03-24T18:59:22.366Z,99.90
2019-03-24T19:01:54.005Z,99.90
2019-03-24T19:04:25.557Z,99.90
2019-03-24T19:06:58.517Z,99.90
2019-03-24T19:09:30.490Z,99.90
2019-03-24T19:12:02.399Z,99.90
2019-03-24T19:14:36.693Z,99.90
2019-03-24T19:17:11.233Z,99.90
2019-03-24T19:19:41.900Z,99.90
2019-03-24T19:22:13.064Z,99.90
2019-03-24T19:24:43.786Z,99.90
2019-03-24T19:27:14.716Z,99.90
2019-03-24T19:29:46.123Z,99.90
2019-03-24T19:32:16.776Z,99.90
2019-03-24T19:34:47.789Z,99.90
2019-03-24T19:37:18.582Z,99.90
2019-03-24T19:39:49.174Z,99.90
2019-03-24T19:42:20.926Z,99.90
2019-03-24T19:44:51.863Z,99.90
2019-03-24T19:47:22.677Z,99.90
2019-03-24T19:49:53.882Z,99.90
2019-03-24T19:52:25.311Z,99.90
2019-03-24T19:54:56.908Z,99.90
2019-03-24T19:57:27.884Z,99.90
2019-03-24T19:59:58.756Z,99.90
2019-03-24T20:02:29.983Z,99.90
2019-03-24T20:05:00.526Z,99.90
2019-03-24T20:07:31.000Z,99.90
2019-03-24T20:10:02.697Z,99.90
2019-03-24T20:12:33.283Z,99.90
2019-03-24T20:15:04.759Z,99.90
2019-03-24T20:17:37.211Z,99.90
2019-03-24T20:20:08.344Z,99.90
2019-03-24T20:22:39.035Z,99.90
2019-03-24T20:25:13.375Z,99.90
2019-03-24T20:27:44.346Z,99.90
2019-03-24T20:30:15.303Z,99.90
2019-03-24T20:32:46.453Z,99.90
2019-03-24T20:35:17.664Z,99.90
2019-03-24T20:37:48.363Z,99.90
2019-03-24T20:40:19.027Z,99.90
2019-03-24T20:42:50.611Z,99.90
2019-03-24T20:45:22.061Z,99.90
2019-03-24T20:47:53.828Z,99.90
2019-03-24T20:50:24.919Z,99.90
2019-03-24T20:53:03.735Z,99.90
2019-03-24T20:55:29.095Z,99.90
2019-03-24T20:57:59.709Z,99.90
2019-03-24T21:00:40.526Z,99.90
2019-03-24T21:03:11.631Z,99.90
2019-03-24T21:05:42.264Z,99.90
2019-03-24T21:08:13.775Z,99.90
2019-03-24T21:10:46.561Z,99.90
2019-03-24T21:13:17.202Z,99.90
2019-03-24T21:15:48.464Z,99.90
2019-03-24T21:18:19.514Z,99.90
2019-03-24T21:20:51.099Z,99.90
2019-03-24T21:23:29.482Z,99.90
2019-03-24T21:25:55.601Z,99.90
2019-03-24T21:28:29.306Z,99.90
2019-03-24T21:30:59.971Z,99.90
2019-03-24T21:33:30.894Z,99.90
2019-03-24T21:36:02.436Z,99.90
2019-03-24T21:38:33.088Z,99.90
2019-03-24T21:41:03.919Z,99.90
2019-03-24T21:43:34.879Z,99.90
2019-03-24T21:46:06.095Z,99.90
2019-03-24T21:48:36.484Z,99.90
2019-03-24T21:51:08.674Z,99.90
2019-03-24T21:53:40.986Z,99.90
2019-03-24T21:56:14.153Z,99.90
2019-03-24T21:58:44.457Z,99.90
2019-03-24T22:01:19.630Z,99.90
2019-03-24T22:03:51.354Z,99.90
2019-03-24T22:06:22.546Z,99.90
2019-03-24T22:08:53.730Z,99.90
2019-03-24T22:11:24.378Z,99.90
2019-03-24T22:13:56.297Z,99.90
2019-03-24T22:16:27.655Z,99.90
2019-03-24T22:18:59.580Z,99.90
2019-03-24T22:21:30.571Z,99.90
2019-03-24T22:24:01.066Z,99.90
2019-03-24T22:26:32.324Z,99.90
2019-03-24T22:29:03.351Z,99.90
2019-03-24T22:31:34.359Z,99.90
2019-03-24T22:34:05.575Z,99.90
2019-03-24T22:36:37.193Z,99.90
2019-03-24T22:39:09.271Z,99.90
2019-03-24T22:41:40.355Z,99.90
2019-03-24T22:44:11.140Z,99.90
2019-03-24T22:46:41.822Z,99.90
2019-03-24T22:49:12.451Z,99.90
2019-03-24T22:51:44.130Z,99.90
2019-03-24T22:54:15.643Z,99.90
2019-03-24T22:56:46.835Z,99.90
2019-03-24T22:59:17.298Z,99.90
2019-03-24T23:01:48.123Z,99.90
2019-03-24T23:04:19.046Z,99.90
2019-03-24T23:06:49.868Z,99.90
2019-03-24T23:09:20.738Z,99.90
2019-03-24T23:11:51.432Z,99.90
2019-03-24T23:14:21.812Z,99.90
2019-03-24T23:16:52.206Z,99.90
2019-03-24T23:19:23.076Z,99.90
2019-03-24T23:21:53.582Z,99.90
2019-03-24T23:24:24.420Z,99.90
2019-03-24T23:26:54.806Z,99.90
2019-03-24T23:29:26.242Z,99.90
2019-03-24T23:31:56.958Z,99.90
2019-03-24T23:34:27.367Z,99.90
2019-03-24T23:36:58.471Z,99.90
2019-03-24T23:39:29.228Z,99.90
2019-03-24T23:41:59.814Z,99.90
2019-03-24T23:44:30.798Z,99.90
2019-03-24T23:47:01.708Z,99.90
2019-03-24T23:49:32.096Z,99.90
2019-03-24T23:52:02.821Z,99.90
2019-03-24T23:54:33.197Z,99.90
2019-03-24T23:57:03.599Z,99.90
2019-03-24T23:59:33.984Z,99.90
